This is the latest recevied weather packets stored in our database for station/object K4SHP-16. If no packets are shown the sender has not sent any weather packets the latest 10 day(s).
| Time | Temp. | Humidity | Pressure | Rain* | Wind** | Luminosity | Snow |
|---|---|---|---|---|---|---|---|
| 1777637344 | 15° C | 67% | 1015 hPa | 0 mm | - | - | - |
| 1777636804 | 15° C | 68% | 1015.1 hPa | 0 mm | - | - | - |
| 1777636465 | 15° C | 66% | 1015.2 hPa | 0 mm | - | - | - |
| 1777635364 | 14.44° C | 70% | 1014.8 hPa | 0 mm | - | - | - |
| 1777632305 | 14.44° C | 72% | 1014.7 hPa | 0 mm | - | - | - |
| 1777631764 | 14.44° C | 71% | 1014.6 hPa | 0 mm | - | - | - |
| 1777631224 | 14.44° C | 72% | 1014.4 hPa | 0 mm | - | - | - |
| 1777629604 | 15° C | 73% | 1013.8 hPa | 0 mm | - | - | - |
| 1777629244 | 15° C | 73% | 1013.6 hPa | 0 mm | - | - | - |
| 1777628164 | 15.56° C | 75% | 1013.7 hPa | 0 mm | - | - | - |
| 1777624024 | 15° C | 94% | 1013.3 hPa | 0 mm | - | - | - |
| 1777619344 | 14.44° C | 93% | 1012.4 hPa | 0 mm | - | - | - |
| 1777616284 | 13.89° C | 93% | 1012.3 hPa | 0 mm | - | - | - |
| 1777615204 | 13.33° C | 93% | 1012.5 hPa | 0 mm | - | - | - |
| 1777614304 | 13.33° C | 93% | 1012.5 hPa | 0 mm | - | - | - |
| 1777613245 | 12.78° C | 93% | 1012.5 hPa | 0 mm | - | - | - |
| 1777607644 | 13.33° C | 92% | 1012.4 hPa | 0 mm | - | - | - |
| 1777606564 | 13.33° C | 92% | 1012.2 hPa | 0 mm | - | - | - |
| 1777601884 | 14.44° C | 91% | 1012 hPa | 0 mm | - | - | - |
| 1777599364 | 15.56° C | 90% | 1011.6 hPa | 0 mm | - | - | - |
| 1777597204 | 16.67° C | 89% | 1011.1 hPa | 0 mm | - | - | - |
| 1777595224 | 17.22° C | 85% | 1010.3 hPa | 0 mm | - | - | - |
| 1777593244 | 18.89° C | 81% | 1010.1 hPa | 0 mm | - | - | - |
| 1777590544 | 22.78° C | 68% | 1009.9 hPa | 0 mm | - | - | - |
| 1777588564 | 23.33° C | 66% | 1009.5 hPa | 0 mm | - | - | - |
* Rain latest hour (hover to see other rain measurements)
** Current wind speed in m/s (hover to see current wind gust speed)